»·PEaware :: N614FT KSBP-KSBP

N614FT :: KSBP-KSBP

FLIGHT INFORMATION

Flight Status: Arrived
Operator: Privately registered:
United States
More flights under this callsign
Pilot: Carlos A. (16805)
Aircraft: PIPER PA-31/31P NAVAJO CHIEFTAIN
(PA31)
More flights by this aircraft type
Origin: KSBP San Luis Co Regl
United States
Destination: KSBP San Luis Co Regl
United States
More flights between these airports :: More routes between these airports
Route:
File this flight plan on PilotEdge
Remarks:
Altitude:
(Current/Filed)
0ft
Speed:
(Current/Filed)
0kts
Departed: 02-Feb-23 10:08 AM
Arrived: 02-Feb-23 10:29 AM
Distance/Time
Traveled:
0nm/0:20
Distance/Time
To Go:
Arrived

Flight Plot

Page will automatically refresh every two minutes.


Map Options




Map Legend


Flown Route
Filed Route
Departure Airport
Arrival Airport
Navaid (VOR, NDB)
Fix

Horizontal Profiles

Position Reports

Time Latitude Longitude Heading Altitude Ground
Speed
02-Feb-23 09:41 35.237965 -120.638274 0 216ft 0kts
02-Feb-23 09:42 35.237966 -120.638274 0 216ft 0kts
02-Feb-23 09:43 35.237968 -120.638274 0 216ft 0kts
02-Feb-23 09:44 35.237969 -120.638274 0 216ft 0kts
02-Feb-23 09:45 35.237970 -120.638274 0 216ft 0kts
02-Feb-23 09:46 35.237972 -120.638274 0 216ft 0kts
02-Feb-23 09:47 35.237973 -120.638274 0 216ft 0kts
02-Feb-23 09:48 35.238232 -120.638384 309 216ft 1kts
02-Feb-23 09:49 35.238237 -120.638391 309 216ft 0kts
02-Feb-23 09:50 35.238247 -120.638276 180 216ft 0kts
02-Feb-23 09:51 35.238239 -120.638276 180 216ft 0kts
02-Feb-23 09:52 35.238227 -120.638276 180 216ft 0kts
02-Feb-23 09:53 35.238221 -120.638276 180 216ft 0kts
02-Feb-23 09:54 35.238219 -120.638276 180 216ft 0kts
02-Feb-23 09:55 35.238217 -120.638276 180 216ft 0kts
02-Feb-23 09:56 35.238215 -120.638276 180 216ft 0kts
02-Feb-23 09:57 35.238141 -120.638277 180 216ft 1kts
02-Feb-23 09:58 35.237695 -120.639176 267 216ft 4kts
02-Feb-23 09:59 35.236923 -120.638368 127 216ft 7kts
02-Feb-23 10:00 35.235612 -120.635988 127 216ft 8kts
02-Feb-23 10:01 35.234225 -120.633451 124 216ft 9kts
02-Feb-23 10:02 35.233222 -120.632672 215 216ft 0kts
02-Feb-23 10:03 35.233220 -120.632673 215 216ft 0kts
02-Feb-23 10:04 35.233218 -120.632675 215 216ft 0kts
02-Feb-23 10:05 35.233216 -120.632677 215 216ft 0kts
02-Feb-23 10:06 35.232889 -120.633181 316 216ft 0kts
02-Feb-23 10:07 35.241416 -120.646801 311 840ft 88kts
02-Feb-23 10:08 35.251773 -120.627922 88 1724ft 133kts
02-Feb-23 10:09 35.246219 -120.585622 131 1859ft 137kts
02-Feb-23 10:10 35.227078 -120.598098 325 1058ft 113kts
02-Feb-23 10:11 35.236168 -120.624487 284 529ft 81kts
02-Feb-23 10:12 35.236873 -120.651084 274 253ft 80kts
02-Feb-23 10:13 35.219659 -120.659243 102 1127ft 117kts
02-Feb-23 10:14 35.220974 -120.623727 123 1702ft 129kts
02-Feb-23 10:15 35.215877 -120.593992 3 1321ft 96kts
02-Feb-23 10:16 35.225529 -120.620435 304 494ft 86kts
02-Feb-23 10:17 35.237412 -120.641162 306 216ft 77kts
02-Feb-23 10:18 35.256559 -120.656162 356 1392ft 94kts
02-Feb-23 10:19 35.260367 -120.621573 109 1901ft 122kts
02-Feb-23 10:20 35.247638 -120.593874 176 1655ft 116kts
02-Feb-23 10:21 35.236747 -120.621220 277 786ft 98kts
02-Feb-23 10:22 35.236933 -120.648331 270 216ft 75kts
02-Feb-23 10:23 35.227030 -120.673436 171 979ft 116kts
02-Feb-23 10:24 35.207539 -120.644305 116 1873ft 121kts
02-Feb-23 10:25 35.188840 -120.613073 87 1421ft 106kts
02-Feb-23 10:26 35.209323 -120.602322 341 907ft 88kts
02-Feb-23 10:27 35.226651 -120.622709 311 484ft 86kts
02-Feb-23 10:28 35.237002 -120.640118 338 216ft 11kts
02-Feb-23 10:29 35.237626 -120.640138 3 216ft 0kts
02-Feb-23 10:30 35.236954 -120.637317 38 216ft 8kts
02-Feb-23 10:31 35.237285 -120.637270 356 216ft 0kts
02-Feb-23 10:32 35.237287 -120.637270 356 216ft 0kts
02-Feb-23 10:33 35.237287 -120.637270 356 216ft 0kts
02-Feb-23 10:34 35.237287 -120.637270 356 216ft 0kts

Navigation Log

Ident Type
Flight plan parsing failed, navigation log unavailable